Latest Coastal Weather Observations for Broome Port

IDW60701

Issued at 9:55 am WST Friday 1 August 2014 (issued every 10 minutes, with the page automatically refreshed every 10 minutes)

About coastal observations | Map of coastal stations | Coastal observations for WA | Marine services | Other Formats
Station Details ID: 003102 Name: BROOME NTC AWS Lat: -18.00 Lon: 122.22 Height: 0.0 m
Data from the previous 72 hours. | See also: Recent months for locations in Western Australia
Date/Time
WST
Temp

°C
Wind Pressure Rain
since 9am
mm
Weather Cloud Vis
km
Sea
Height
m
Swell
Dir
 
Speed
knots
Gust
knots
hPa Trend Height
m
Period
s
Dir
01/09:30am 25.8 ESE 18 21 1015.9 - - - - - - - - -
01/09:00am 23.2 ESE 11 13 1016.2 - - - - - - - - -
01/08:30am 21.7 ESE 9 11 1016.1 - - - - - - - - -
01/08:00am 21.2 ESE 9 11 1015.9 - - - - - - - - -
01/07:30am 21.5 ESE 10 12 1015.6 - - - - - - - - -
01/07:00am 21.9 SE 11 14 1015.2 - - - - - - - - -
01/06:30am 22.0 SE 10 12 1015.1 - - - - - - - - -
01/06:00am 21.8 SE 9 11 1014.8 - - - - - - - - -
01/05:30am 22.0 SE 10 11 1014.5 - - - - - - - - -
01/05:00am 22.6 SE 9 11 1014.3 - - - - - - - - -
01/04:30am 21.7 ESE 5 7 1014.3 - - - - - - - - -
01/04:00am 21.5 SE 5 6 1014.1 - - - - - - - - -
01/03:30am 21.9 SSE 11 12 1014.2 - - - - - - - - -
01/03:00am 22.7 SSE 10 15 1014.2 - - - - - - - - -
01/02:30am 22.4 SSE 8 9 1014.0 - - - - - - - - -
01/02:00am 22.7 SE 5 7 1014.1 - - - - - - - - -
01/01:30am 22.7 S 5 8 1014.0 - - - - - - - - -
01/01:00am 23.0 S 5 8 1014.2 - - - - - - - - -
01/12:30am 22.9 SSE 6 7 1014.4 - - - - - - - - -
01/12:00am 23.3 S 10 11 1014.4 - - - - - - - - -
 
Date/Time
WST
Temp

°C
Wind Pressure Rain
since 9am
mm
Weather Cloud Vis
km
Sea
Height
m
Swell
Dir
 
Speed
knots
Gust
knots
hPa Trend Height
m
Period
s
Dir
31/11:30pm 23.4 S 10 11 1014.4 - - - - - - - - -
31/11:00pm 23.6 S 11 13 1014.6 - - - - - - - - -
31/10:30pm 23.7 S 8 10 1014.8 - - - - - - - - -
31/10:00pm 23.7 S 9 10 1014.7 - - - - - - - - -
31/09:30pm 23.8 S 8 9 1014.7 - - - - - - - - -
31/09:00pm 24.7 S 10 12 1014.6 - - - - - - - - -
31/08:30pm 26.1 SSW 11 12 1014.4 - - - - - - - - -
31/08:00pm 26.0 SW 13 14 1014.2 - - - - - - - - -
31/07:30pm 24.2 SW 12 14 1013.7 - - - - - - - - -
31/07:00pm 24.6 SW 14 15 1013.2 - - - - - - - - -
31/06:30pm 24.4 WSW 12 14 1012.8 - - - - - - - - -
31/06:00pm 24.1 WSW 12 14 1012.6 - - - - - - - - -
31/05:30pm 24.1 WSW 12 14 1012.5 - - - - - - - - -
31/05:00pm 24.7 WSW 12 15 1012.4 - - - - - - - - -
31/04:30pm 24.9 WSW 13 15 1012.3 - - - - - - - - -
31/04:00pm 28.0 WSW 12 13 1012.1 - - - - - - - - -
31/03:30pm 27.5 WSW 11 14 1012.0 - - - - - - - - -
31/03:00pm 27.9 WSW 9 11 1012.2 - - - - - - - - -
31/02:30pm 27.9 SW 10 12 1012.4 - - - - - - - - -
31/02:00pm 30.6 SSW 8 9 1012.7 - - - - - - - - -
31/01:30pm 29.9 S 9 10 1013.1 - - - - - - - - -
31/01:00pm 28.9 S 9 10 1013.6 - - - - - - - - -
31/12:30pm 29.1 SSE 11 13 1014.1 - - - - - - - - -
31/12:00pm 27.0 SSE 12 13 1014.5 - - - - - - - - -
31/11:30am 27.0 SSE 13 14 1015.0 - - - - - - - - -
31/11:00am 25.7 S 7 9 1015.5 - - - - - - - - -
31/10:30am 23.1 SSE 4 5 1015.9 - - - - - - - - -
31/10:00am 21.9 ESE 3 4 1016.3 - - - - - - - - -
31/09:30am 21.3 SE 5 6 1016.4 - - - - - - - - -
31/09:00am 21.3 SE 6 7 1016.6 - - - - - - - - -
31/08:30am 21.4 ESE 6 8 1016.5 - - - - - - - - -
31/08:00am 20.6 E 7 8 1016.5 - - - - - - - - -
31/07:30am 21.1 E 10 12 1016.4 - - - - - - - - -
31/07:00am 21.2 ESE 12 14 1016.2 - - - - - - - - -
31/06:30am 21.4 ESE 11 14 1015.8 - - - - - - - - -
31/06:00am 21.7 ESE 10 13 1015.6 - - - - - - - - -
31/05:30am 20.8 E 9 11 1015.3 - - - - - - - - -
31/05:00am 21.5 E 10 12 1015.1 - - - - - - - - -
31/04:30am 21.1 SE 5 6 1015.0 - - - - - - - - -
31/04:00am 22.3 SE 9 12 1014.9 - - - - - - - - -
31/03:30am 22.4 SSE 4 5 1014.7 - - - - - - - - -
31/03:00am 23.6 SSE 10 13 1014.8 - - - - - - - - -
31/02:30am 24.2 SSE 11 12 1014.8 - - - - - - - - -
31/02:00am 23.5 SE 8 9 1015.0 - - - - - - - - -
31/01:30am 24.0 SE 5 6 1015.1 - - - - - - - - -
31/01:00am 25.1 SSE 5 6 1015.3 - - - - - - - - -
31/12:30am 25.8 S 5 5 1015.4 - - - - - - - - -
31/12:00am 25.5 SSW 5 6 1015.5 - - - - - - - - -
 
Date/Time
WST
Temp

°C
Wind Pressure Rain
since 9am
mm
Weather Cloud Vis
km
Sea
Height
m
Swell
Dir
 
Speed
knots
Gust
knots
hPa Trend Height
m
Period
s
Dir
30/11:30pm 26.3 SW 4 5 1015.5 - - - - - - - - -
30/11:00pm 26.2 WSW 5 6 1015.5 - - - - - - - - -
30/10:30pm 26.5 W 5 6 1015.5 - - - - - - - - -
30/10:00pm 26.8 W 6 7 1015.4 - - - - - - - - -
30/09:30pm 26.6 W 5 7 1015.3 - - - - - - - - -
30/09:00pm 26.7 W 5 6 1015.3 - - - - - - - - -
30/08:30pm 26.8 W 5 7 1015.3 - - - - - - - - -
30/08:00pm 27.7 W 5 6 1015.1 - - - - - - - - -
30/07:30pm 26.7 WSW 7 8 1015.0 - - - - - - - - -
30/07:00pm 25.4 W 5 8 1014.5 - - - - - - - - -
30/06:30pm 26.3 NW 7 9 1014.1 - - - - - - - - -
30/06:00pm 28.6 NE 4 8 1013.8 - - - - - - - - -
30/05:30pm 29.9 SW 8 9 1013.4 - - - - - - - - -
30/05:00pm 30.8 SSW 7 9 1013.2 - - - - - - - - -
30/04:30pm 30.8 SSW 9 9 1012.9 - - - - - - - - -
30/04:00pm 30.8 SSW 9 11 1012.6 - - - - - - - - -
30/03:30pm 30.8 S 9 10 1012.6 - - - - - - - - -
30/03:00pm 30.2 SSW 7 8 1012.8 - - - - - - - - -
30/02:30pm 30.9 SSW 7 8 1012.9 - - - - - - - - -
30/02:00pm 29.8 S 7 9 1013.2 - - - - - - - - -
30/01:30pm 29.5 SSE 7 9 1013.4 - - - - - - - - -
30/01:00pm 29.6 SSE 9 10 1014.0 - - - - - - - - -
30/12:30pm 29.6 SE 9 10 1014.5 - - - - - - - - -
30/12:00pm 29.5 ESE 12 13 1015.1 - - - - - - - - -
30/11:30am 28.4 ESE 12 13 1015.5 - - - - - - - - -
30/11:00am 26.1 ESE 10 11 1016.0 - - - - - - - - -
30/10:30am 26.5 E 10 11 1016.4 - - - - - - - - -
30/10:00am 23.1 ESE 6 8 1016.9 - - - - - - - - -
30/09:30am 21.9 ESE 6 7 1017.1 - - - - - - - - -
30/09:00am 21.3 E 6 7 1017.4 - - - - - - - - -
30/08:30am 20.9 ESE 7 8 1017.2 - - - - - - - - -
30/08:00am 20.4 ESE 6 7 1017.1 - - - - - - - - -
30/07:30am 20.4 E 6 8 1017.0 - - - - - - - - -
30/07:00am 20.3 E 4 5 1016.6 - - - - - - - - -
30/06:30am 20.6 ESE 6 8 1016.3 - - - - - - - - -
30/06:00am 20.7 SE 8 9 1016.0 - - - - - - - - -
30/05:30am 21.2 SE 12 13 1015.6 - - - - - - - - -
30/05:00am 21.5 E 8 10 1015.5 - - - - - - - - -
30/04:30am 21.9 ESE 8 9 1015.2 - - - - - - - - -
30/04:00am 22.5 ESE 9 11 1015.2 - - - - - - - - -
30/03:30am 22.7 ESE 9 11 1015.2 - - - - - - - - -
30/03:00am 23.2 ESE 9 11 1015.1 - - - - - - - - -
30/02:30am 23.8 SE 9 11 1015.1 - - - - - - - - -
30/02:00am 23.5 SE 7 9 1015.4 - - - - - - - - -
30/01:30am 23.7 SE 4 5 1015.5 - - - - - - - - -
30/01:00am 22.2 S 1 3 1015.7 - - - - - - - - -
30/12:30am 22.2 SSW 1 3 1015.7 - - - - - - - - -
30/12:00am 22.4 SSW 2 3 1015.8 - - - - - - - - -
 
Date/Time
WST
Temp

°C
Wind Pressure Rain
since 9am
mm
Weather Cloud Vis
km
Sea
Height
m
Swell
Dir
 
Speed
knots
Gust
knots
hPa Trend Height
m
Period
s
Dir
29/11:30pm 22.8 SW 4 6 1015.8 - - - - - - - - -
29/11:00pm 22.6 SW 8 9 1015.9 - - - - - - - - -
29/10:30pm 23.8 W 8 9 1015.7 - - - - - - - - -
29/10:00pm 23.0 NW 4 7 1015.9 - - - - - - - - -
29/09:30pm 23.7 WNW 5 6 1015.8 - - - - - - - - -
29/09:00pm 24.8 W 7 10 1015.9 - - - - - - - - -
29/08:30pm 24.0 NNW 5 5 1015.6 - - - - - - - - -
29/08:00pm 23.8 WNW 4 6 1015.5 - - - - - - - - -
29/07:30pm 25.9 NW 9 9 1015.2 - - - - - - - - -
29/07:00pm 24.5 NW 8 9 1015.0 - - - - - - - - -
29/06:30pm 24.5 W 6 8 1014.8 - - - - - - - - -
29/06:00pm 24.2 NW 6 7 1014.6 - - - - - - - - -
29/05:30pm 25.5 NW 8 10 1014.3 - - - - - - - - -
29/05:00pm 25.4 WNW 6 9 1014.1 - - - - - - - - -
29/04:47pm 23.9 NW 5 9 1013.9 - - - - - - - - -
29/04:30pm 29.3 NW 3 5 1013.6 - - - - - - - - -
29/04:00pm 30.0 NNW 1 4 1013.4 - - - - - - - - -
29/03:30pm 31.1 SE 7 8 1013.2 - - - - - - - - -
29/03:00pm 30.6 SE 6 7 1013.2 - - - - - - - - -
29/02:30pm 30.6 SE 9 10 1013.3 - - - - - - - - -
29/02:00pm 30.8 ESE 8 9 1013.5 - - - - - - - - -
29/01:30pm 31.0 ESE 8 11 1013.7 - - - - - - - - -
29/01:00pm 28.6 SE 6 8 1014.0 - - - - - - - - -
29/12:30pm 28.6 SE 7 9 1014.4 - - - - - - - - -
29/12:00pm 28.8 SE 11 12 1014.8 - - - - - - - - -
29/11:30am 26.9 SE 9 10 1015.3 - - - - - - - - -
29/11:00am 26.8 ESE 12 13 1015.8 - - - - - - - - -
29/10:30am 25.7 ESE 10 11 1016.2 - - - - - - - - -
29/10:00am 25.4 ESE 7 9 1016.5 - - - - - - - - -

Other Formats:

Comma delimited format used in spreadsheet applications
http://www.bom.gov.au/fwo/IDW60701/IDW60701.95202.axf

JavaScript Object Notation format (JSON) in row-major order
http://www.bom.gov.au/fwo/IDW60701/IDW60701.95202.json